createdAt,value
2017-05-15T00:00:58.948Z,83.20
2017-05-15T00:03:27.328Z,82.30
2017-05-15T00:05:55.599Z,82.00
2017-05-15T00:08:23.887Z,81.80
2017-05-15T00:10:52.163Z,81.60
2017-05-15T00:13:20.451Z,81.40
2017-05-15T00:15:48.724Z,81.00
2017-05-15T00:18:17.467Z,81.10
2017-05-15T00:20:45.767Z,81.40
2017-05-15T00:23:14.060Z,81.80
2017-05-15T00:25:42.336Z,81.60
2017-05-15T00:28:10.707Z,81.60
2017-05-15T00:30:38.980Z,82.30
2017-05-15T00:33:07.268Z,82.30
2017-05-15T00:35:35.538Z,82.40
2017-05-15T00:38:03.903Z,82.20
2017-05-15T00:40:32.175Z,82.00
2017-05-15T00:43:00.448Z,81.80
2017-05-15T00:45:28.732Z,81.70
2017-05-15T00:47:57.009Z,81.80
2017-05-15T00:50:25.295Z,82.50
2017-05-15T00:52:53.571Z,82.50
2017-05-15T00:55:21.870Z,82.60
2017-05-15T00:57:50.927Z,82.70
2017-05-15T01:00:19.308Z,83.30
2017-05-15T01:02:47.684Z,83.40
2017-05-15T01:05:15.975Z,83.50
2017-05-15T01:07:44.252Z,83.20
2017-05-15T01:10:12.551Z,82.80
2017-05-15T01:12:40.829Z,82.90
2017-05-15T01:15:09.103Z,82.90
2017-05-15T01:17:37.394Z,82.90
2017-05-15T01:20:06.407Z,83.10
2017-05-15T01:22:34.699Z,83.00
2017-05-15T01:25:02.974Z,82.30
2017-05-15T01:27:31.364Z,82.70
2017-05-15T01:29:59.639Z,82.70
2017-05-15T01:32:27.928Z,83.30
2017-05-15T01:34:56.199Z,83.50
2017-05-15T01:37:24.888Z,83.40
2017-05-15T01:39:53.255Z,83.10
2017-05-15T01:42:22.559Z,82.80
2017-05-15T01:44:50.831Z,82.80
2017-05-15T01:47:19.119Z,82.50
2017-05-15T01:49:47.484Z,82.50
2017-05-15T01:52:15.783Z,82.30
2017-05-15T01:54:44.056Z,82.40
2017-05-15T01:57:12.368Z,82.20
2017-05-15T01:59:41.408Z,82.30
2017-05-15T02:02:09.692Z,82.50
2017-05-15T02:04:37.979Z,82.10
2017-05-15T02:07:06.251Z,82.20
2017-05-15T02:09:34.609Z,82.30
2017-05-15T02:12:02.880Z,82.60
2017-05-15T02:14:31.173Z,82.70
2017-05-15T02:16:59.447Z,82.80
2017-05-15T02:19:27.736Z,82.50
2017-05-15T02:21:56.272Z,83.10
2017-05-15T02:24:24.579Z,83.30
2017-05-15T02:26:52.899Z,82.90
2017-05-15T02:29:21.915Z,82.20
2017-05-15T02:31:50.204Z,82.60
2017-05-15T02:34:18.493Z,81.30
2017-05-15T02:36:46.788Z,82.50
2017-05-15T02:39:15.059Z,81.20
2017-05-15T02:41:43.351Z,80.80
2017-05-15T02:44:11.629Z,80.40
2017-05-15T02:46:39.976Z,80.80
2017-05-15T02:49:08.251Z,81.10
2017-05-15T02:51:36.559Z,81.60
2017-05-15T02:54:04.836Z,82.30
2017-05-15T02:56:33.179Z,81.60
2017-05-15T02:59:01.459Z,81.20
2017-05-15T03:01:29.731Z,82.40
2017-05-15T03:03:58.122Z,82.80
2017-05-15T03:06:26.414Z,81.70
2017-05-15T03:08:54.702Z,81.60
2017-05-15T03:11:22.976Z,81.60
2017-05-15T03:13:51.271Z,82.20
2017-05-15T03:16:20.291Z,82.60
2017-05-15T03:18:48.581Z,82.90
2017-05-15T03:21:16.852Z,82.80
2017-05-15T03:23:45.155Z,83.30
2017-05-15T03:26:13.427Z,83.30
2017-05-15T03:28:42.016Z,84.20
2017-05-15T03:31:10.307Z,83.90
2017-05-15T03:33:38.580Z,83.70
2017-05-15T03:36:06.875Z,83.80
2017-05-15T03:38:35.892Z,83.90
2017-05-15T03:41:04.179Z,83.70
2017-05-15T03:43:32.964Z,83.80
2017-05-15T03:46:01.352Z,83.60
2017-05-15T03:48:29.636Z,83.40
2017-05-15T03:50:57.931Z,84.00
2017-05-15T03:53:26.283Z,84.40
2017-05-15T03:55:54.665Z,84.10
2017-05-15T03:58:22.944Z,83.80
2017-05-15T04:00:51.259Z,84.20
2017-05-15T04:03:19.547Z,84.10
2017-05-15T04:05:48.563Z,84.50
2017-05-15T04:08:16.855Z,85.10
2017-05-15T04:10:45.176Z,84.40
2017-05-15T04:13:13.463Z,84.30
2017-05-15T04:15:42.477Z,85.00
2017-05-15T04:18:10.764Z,85.60
2017-05-15T04:20:39.067Z,85.30
2017-05-15T04:23:07.444Z,85.50
2017-05-15T04:25:35.721Z,85.40
2017-05-15T04:28:04.023Z,84.20
2017-05-15T04:30:32.368Z,84.60
2017-05-15T04:33:00.655Z,85.20
2017-05-15T04:35:28.927Z,85.40
2017-05-15T04:37:57.299Z,85.40
2017-05-15T04:40:25.612Z,85.20
2017-05-15T04:42:53.887Z,85.30
2017-05-15T04:45:22.175Z,85.50
2017-05-15T04:47:51.223Z,86.20
2017-05-15T04:50:19.511Z,85.90
2017-05-15T04:52:47.784Z,86.80
2017-05-15T04:55:16.076Z,88.00
2017-05-15T04:57:44.347Z,88.50
2017-05-15T05:00:12.701Z,88.10
2017-05-15T05:02:40.976Z,88.20
2017-05-15T05:05:09.352Z,87.60
2017-05-15T05:07:37.636Z,87.60
2017-05-15T05:10:05.928Z,87.40
2017-05-15T05:12:34.204Z,87.20
2017-05-15T05:15:02.559Z,86.90
2017-05-15T05:17:30.936Z,86.60
2017-05-15T05:20:20.532Z,86.50
2017-05-15T05:26:07.647Z,87.10
2017-05-15T05:28:47.723Z,86.40
2017-05-15T05:31:40.739Z,86.00
2017-05-15T05:34:20.931Z,85.90
2017-05-15T05:36:50.128Z,86.60
2017-05-15T05:39:44.515Z,85.80
2017-05-15T05:42:27.730Z,86.30
2017-05-15T05:44:56.005Z,86.50
2017-05-15T05:47:24.295Z,87.40
2017-05-15T05:49:52.655Z,88.60
2017-05-15T05:52:21.031Z,87.70
2017-05-15T05:54:52.421Z,87.70
2017-05-15T05:57:25.556Z,87.50
2017-05-15T06:00:08.647Z,87.70
2017-05-15T06:02:49.691Z,88.00
2017-05-15T06:05:29.823Z,86.70
2017-05-15T06:08:10.015Z,85.90
2017-05-15T06:11:02.860Z,85.40
2017-05-15T06:13:57.013Z,85.80
2017-05-15T06:16:37.043Z,85.80
2017-05-15T06:19:04.850Z,84.70
2017-05-15T06:21:32.691Z,82.40
2017-05-15T06:24:22.471Z,81.70
2017-05-15T06:26:55.516Z,77.50
2017-05-15T06:29:25.373Z,79.10
2017-05-15T06:31:53.646Z,81.20
2017-05-15T06:34:22.536Z,83.10
2017-05-15T06:36:50.831Z,79.70
2017-05-15T06:39:45.687Z,80.00
2017-05-15T06:42:26.076Z,80.60
2017-05-15T06:44:54.351Z,79.60
2017-05-15T06:47:22.641Z,77.90
2017-05-15T06:49:50.911Z,76.80
2017-05-15T06:52:19.205Z,77.80
2017-05-15T06:54:47.479Z,76.50
2017-05-15T06:57:15.863Z,78.00
2017-05-15T06:59:44.139Z,79.90
2017-05-15T07:02:12.426Z,77.40
2017-05-15T07:04:41.439Z,76.40
2017-05-15T07:07:09.242Z,75.90
2017-05-15T07:09:37.616Z,76.60
2017-05-15T07:12:05.903Z,74.90
2017-05-15T07:14:34.188Z,74.10
2017-05-15T07:17:02.479Z,73.70
2017-05-15T07:19:30.752Z,73.40
2017-05-15T07:21:59.096Z,71.20
2017-05-15T07:24:27.372Z,73.40
2017-05-15T07:26:55.647Z,73.40
2017-05-15T07:29:23.944Z,73.00
2017-05-15T07:31:52.224Z,72.50
2017-05-15T07:34:20.579Z,72.70
2017-05-15T07:36:48.856Z,74.70
2017-05-15T07:39:17.145Z,71.60
2017-05-15T07:41:45.419Z,71.30
2017-05-15T07:44:13.784Z,71.60
2017-05-15T07:46:42.060Z,72.20
2017-05-15T07:49:10.361Z,72.40
2017-05-15T07:51:38.637Z,73.90
2017-05-15T07:54:06.992Z,70.40
2017-05-15T07:56:35.273Z,67.70
2017-05-15T07:59:03.567Z,69.20
2017-05-15T08:01:31.840Z,65.60
2017-05-15T08:04:00.116Z,66.40
2017-05-15T08:06:28.415Z,62.80
2017-05-15T08:08:57.428Z,63.50
2017-05-15T08:11:25.720Z,66.60
2017-05-15T08:13:53.995Z,68.40
2017-05-15T08:16:22.284Z,64.00
2017-05-15T08:18:50.556Z,60.70
2017-05-15T08:21:18.848Z,60.20
2017-05-15T08:23:47.125Z,61.40
2017-05-15T08:26:15.416Z,63.60
2017-05-15T08:28:43.700Z,64.60
2017-05-15T08:31:11.995Z,60.80
2017-05-15T08:33:41.011Z,60.10
2017-05-15T08:36:09.295Z,62.20
2017-05-15T08:38:37.583Z,62.00
2017-05-15T08:41:05.859Z,63.50
2017-05-15T08:43:34.149Z,63.40
2017-05-15T08:46:02.428Z,60.90
2017-05-15T08:48:30.720Z,61.20
2017-05-15T08:50:58.998Z,60.00
2017-05-15T08:53:27.340Z,60.90
2017-05-15T08:55:55.605Z,62.90
2017-05-15T08:58:23.900Z,61.40
2017-05-15T09:00:52.181Z,61.60
2017-05-15T09:03:20.551Z,57.30
2017-05-15T09:05:48.828Z,58.60
2017-05-15T09:08:17.132Z,58.90
2017-05-15T09:10:45.408Z,59.00
2017-05-15T09:13:13.681Z,62.60
2017-05-15T09:15:41.972Z,60.50
2017-05-15T09:18:10.247Z,58.20
2017-05-15T09:20:38.540Z,57.20
2017-05-15T09:23:07.554Z,57.50
2017-05-15T09:25:35.843Z,56.90
2017-05-15T09:28:04.116Z,55.90
2017-05-15T09:30:32.425Z,56.30
2017-05-15T09:33:00.707Z,56.40
2017-05-15T09:35:28.995Z,58.30
2017-05-15T09:37:57.275Z,58.00
2017-05-15T09:40:26.308Z,58.60
2017-05-15T09:42:54.587Z,56.80
2017-05-15T09:45:22.862Z,57.60
2017-05-15T09:47:51.152Z,56.90
2017-05-15T09:50:19.428Z,53.80
2017-05-15T09:52:47.728Z,54.50
2017-05-15T09:55:16.000Z,54.00
2017-05-15T09:57:44.292Z,54.00
2017-05-15T10:00:12.567Z,54.20
2017-05-15T10:02:40.860Z,54.90
2017-05-15T10:05:09.876Z,52.80
2017-05-15T10:07:38.168Z,52.20
2017-05-15T10:10:06.452Z,51.00
2017-05-15T10:12:34.747Z,50.80
2017-05-15T10:15:03.023Z,49.30
2017-05-15T10:17:31.316Z,44.90
2017-05-15T10:19:59.587Z,40.20
2017-05-15T10:22:28.344Z,38.10
2017-05-15T10:24:56.640Z,37.60
2017-05-15T10:27:24.921Z,39.80
2017-05-15T10:29:53.211Z,40.80
2017-05-15T10:32:21.487Z,38.60
2017-05-15T10:34:49.775Z,38.10
2017-05-15T10:37:18.791Z,36.40
2017-05-15T10:39:47.084Z,38.80
2017-05-15T10:42:15.923Z,42.50
2017-05-15T10:44:44.955Z,44.10
2017-05-15T10:47:13.231Z,46.00
2017-05-15T10:49:41.520Z,44.50
2017-05-15T10:52:09.795Z,43.30
2017-05-15T10:54:38.108Z,38.30
2017-05-15T10:57:06.383Z,38.90
2017-05-15T10:59:34.660Z,38.70
2017-05-15T11:02:03.020Z,38.30
2017-05-15T11:04:31.299Z,36.90
2017-05-15T11:06:59.592Z,35.20
2017-05-15T11:09:27.867Z,33.80
2017-05-15T11:11:56.165Z,32.40
2017-05-15T11:14:25.183Z,35.80
2017-05-15T11:16:53.471Z,35.20
2017-05-15T11:19:21.744Z,37.20
2017-05-15T11:21:50.037Z,38.40
2017-05-15T11:24:18.315Z,40.40
2017-05-15T11:26:46.616Z,41.40
2017-05-15T11:29:14.912Z,41.50
2017-05-15T11:31:43.956Z,38.80
2017-05-15T11:34:12.248Z,39.00
2017-05-15T11:36:40.527Z,41.30
2017-05-15T11:39:08.822Z,40.80
2017-05-15T11:41:37.848Z,43.40
2017-05-15T11:44:06.139Z,43.00
2017-05-15T11:46:34.415Z,41.80
2017-05-15T11:49:02.713Z,42.10
2017-05-15T11:51:31.014Z,42.30
2017-05-15T11:53:59.293Z,43.00
2017-05-15T11:56:27.589Z,43.00
2017-05-15T11:58:56.608Z,43.80
2017-05-15T12:01:24.899Z,46.80
2017-05-15T12:03:53.175Z,45.70
2017-05-15T12:06:21.468Z,46.60
2017-05-15T12:08:49.751Z,44.40
2017-05-15T12:11:18.103Z,45.60
2017-05-15T12:13:46.396Z,43.20
2017-05-15T12:16:14.667Z,44.10
2017-05-15T12:18:42.973Z,45.00
2017-05-15T12:21:11.252Z,40.50
2017-05-15T12:23:39.548Z,41.80
2017-05-15T12:26:07.831Z,42.00
2017-05-15T12:28:36.124Z,41.70
2017-05-15T12:31:04.399Z,40.80
2017-05-15T12:33:33.407Z,39.90
2017-05-15T12:36:01.684Z,40.60
2017-05-15T12:38:29.976Z,41.60
2017-05-15T12:40:58.259Z,41.20
2017-05-15T12:43:26.584Z,41.20
2017-05-15T12:45:54.851Z,43.10
2017-05-15T12:48:23.144Z,42.40
2017-05-15T12:50:57.335Z,42.60
2017-05-15T12:53:26.392Z,46.00
2017-05-15T12:55:54.671Z,45.00
2017-05-15T12:58:23.711Z,45.50
2017-05-15T13:00:52.003Z,42.30
2017-05-15T13:03:20.280Z,41.20
2017-05-15T13:05:48.572Z,42.00
2017-05-15T13:08:16.848Z,41.90
2017-05-15T13:10:45.145Z,40.80
2017-05-15T13:13:13.419Z,38.60
2017-05-15T13:15:41.712Z,38.50
2017-05-15T13:18:09.992Z,38.80
2017-05-15T13:20:39.043Z,38.90
2017-05-15T13:23:07.325Z,38.40
2017-05-15T13:25:35.620Z,40.60
2017-05-15T13:28:03.897Z,39.10
2017-05-15T13:30:32.176Z,42.00
2017-05-15T13:33:00.468Z,39.20
2017-05-15T13:35:29.483Z,39.80
2017-05-15T13:37:57.785Z,39.30
2017-05-15T13:40:26.059Z,40.00
2017-05-15T13:42:54.449Z,39.90
2017-05-15T13:45:22.735Z,42.10
2017-05-15T13:47:51.099Z,39.10
2017-05-15T13:50:19.375Z,37.40
2017-05-15T13:52:47.671Z,37.10
2017-05-15T13:55:15.951Z,37.60
2017-05-15T13:57:44.812Z,34.40
2017-05-15T14:00:13.100Z,34.80
2017-05-15T14:02:41.377Z,33.10
2017-05-15T14:05:09.672Z,33.70
2017-05-15T14:07:38.211Z,30.90
2017-05-15T14:10:06.505Z,27.80
2017-05-15T14:12:34.888Z,27.10
2017-05-15T14:15:03.179Z,26.30
2017-05-15T14:17:31.541Z,27.10
2017-05-15T14:19:59.839Z,29.10
2017-05-15T14:22:28.111Z,26.80
2017-05-15T14:24:56.896Z,24.20
2017-05-15T14:27:25.177Z,22.90
2017-05-15T14:29:53.483Z,21.70
2017-05-15T14:32:22.495Z,20.90
2017-05-15T14:34:50.767Z,19.00
2017-05-15T14:37:19.059Z,19.20
2017-05-15T14:39:47.337Z,19.90
2017-05-15T14:42:15.639Z,19.80
2017-05-15T14:44:44.068Z,19.30
2017-05-15T14:47:12.363Z,19.80
2017-05-15T14:49:40.639Z,18.00
2017-05-15T14:52:09.032Z,17.90
2017-05-15T14:54:37.314Z,18.10
2017-05-15T14:57:05.607Z,17.30
2017-05-15T14:59:33.892Z,17.20
2017-05-15T15:02:02.216Z,17.00
2017-05-15T15:04:30.487Z,16.00
2017-05-15T15:06:58.764Z,16.60
2017-05-15T15:09:27.064Z,16.20
2017-05-15T15:11:55.340Z,15.40
2017-05-15T15:14:23.632Z,16.60
2017-05-15T15:16:51.911Z,15.50
2017-05-15T15:19:20.212Z,15.60
2017-05-15T15:21:49.228Z,15.80
2017-05-15T15:24:17.524Z,15.30
2017-05-15T15:26:45.799Z,15.60
2017-05-15T15:29:14.115Z,16.70
2017-05-15T15:31:42.391Z,16.00
2017-05-15T15:34:10.684Z,15.60
2017-05-15T15:36:39.700Z,15.40
2017-05-15T15:39:08.003Z,16.10
2017-05-15T15:41:36.275Z,15.90
2017-05-15T15:44:04.565Z,15.60
2017-05-15T15:46:32.840Z,16.30
2017-05-15T15:49:01.138Z,17.70
2017-05-15T15:51:29.419Z,17.60
2017-05-15T15:53:57.718Z,18.00
2017-05-15T15:56:26.732Z,17.50
2017-05-15T15:58:55.006Z,17.80
2017-05-15T16:01:23.296Z,16.90
2017-05-15T16:03:51.567Z,17.90
2017-05-15T16:06:19.859Z,19.40
2017-05-15T16:08:48.135Z,19.80
2017-05-15T16:11:16.423Z,21.20
2017-05-15T16:13:44.715Z,23.30
2017-05-15T16:16:13.572Z,24.60
2017-05-15T16:18:41.848Z,23.90
2017-05-15T16:21:10.150Z,24.50
2017-05-15T16:23:38.432Z,25.10
2017-05-15T16:26:06.707Z,26.30
2017-05-15T16:28:35.000Z,26.10
2017-05-15T16:31:03.275Z,27.00
2017-05-15T16:33:31.563Z,27.20
2017-05-15T16:36:00.588Z,27.60
2017-05-15T16:38:28.879Z,27.70
2017-05-15T16:40:57.151Z,28.10
2017-05-15T16:43:25.443Z,28.40
2017-05-15T16:45:53.719Z,28.20
2017-05-15T16:48:22.015Z,28.80
2017-05-15T16:50:50.291Z,28.50
2017-05-15T16:53:18.584Z,28.60
2017-05-15T16:55:47.599Z,29.60
2017-05-15T16:58:15.888Z,30.10
2017-05-15T17:00:44.176Z,31.30
2017-05-15T17:03:12.467Z,31.90
2017-05-15T17:05:40.744Z,31.70
2017-05-15T17:08:09.015Z,30.60
2017-05-15T17:10:37.312Z,31.90
2017-05-15T17:13:05.588Z,30.40
2017-05-15T17:15:33.879Z,30.40
2017-05-15T17:18:02.155Z,31.20
2017-05-15T17:20:31.192Z,29.90
2017-05-15T17:22:59.468Z,30.00
2017-05-15T17:25:27.760Z,30.50
2017-05-15T17:27:56.037Z,30.50
2017-05-15T17:30:24.340Z,30.80
2017-05-15T17:32:52.615Z,30.90
2017-05-15T17:35:21.259Z,31.00
2017-05-15T17:37:49.557Z,32.50
2017-05-15T17:40:17.831Z,31.10
2017-05-15T17:42:46.121Z,30.80
2017-05-15T17:45:14.887Z,31.10
2017-05-15T17:47:43.264Z,31.80
2017-05-15T17:50:11.550Z,33.30
2017-05-15T17:52:39.848Z,34.20
2017-05-15T17:55:08.124Z,34.30
2017-05-15T17:57:36.418Z,34.50
2017-05-15T18:00:05.440Z,35.00
2017-05-15T18:02:33.732Z,35.50
2017-05-15T18:05:02.017Z,36.10
2017-05-15T18:07:30.312Z,35.20
2017-05-15T18:09:58.588Z,35.20
2017-05-15T18:12:26.864Z,35.70
2017-05-15T18:14:55.164Z,36.00
2017-05-15T18:17:24.185Z,35.60
2017-05-15T18:19:52.479Z,35.90
2017-05-15T18:22:20.756Z,35.60
2017-05-15T18:24:49.052Z,35.40
2017-05-15T18:27:17.328Z,36.60
2017-05-15T18:29:45.628Z,36.30
2017-05-15T18:32:13.904Z,36.50
2017-05-15T18:34:42.658Z,36.30
2017-05-15T18:37:10.939Z,37.50
2017-05-15T18:39:39.215Z,36.90
2017-05-15T18:42:07.517Z,37.60
2017-05-15T18:44:35.803Z,37.10
2017-05-15T18:47:05.623Z,37.60
2017-05-15T18:49:34.646Z,37.80
2017-05-15T18:52:02.941Z,37.70
2017-05-15T18:54:31.224Z,38.50
2017-05-15T18:56:59.520Z,38.10
2017-05-15T18:59:27.792Z,37.90
2017-05-15T19:01:56.084Z,39.70
2017-05-15T19:04:25.103Z,41.60
2017-05-15T19:06:53.422Z,41.60
2017-05-15T19:09:21.699Z,42.10
2017-05-15T19:11:49.980Z,42.80
2017-05-15T19:14:18.271Z,43.80
2017-05-15T19:16:46.559Z,44.50
2017-05-15T19:19:15.600Z,45.00
2017-05-15T19:21:43.875Z,45.30
2017-05-15T19:24:12.167Z,45.80
2017-05-15T19:26:40.446Z,46.20
2017-05-15T19:29:08.737Z,46.50
2017-05-15T19:31:37.020Z,46.90
2017-05-15T19:34:05.316Z,47.20
2017-05-15T19:36:34.331Z,47.60
2017-05-15T19:39:02.620Z,48.10
2017-05-15T19:41:30.901Z,48.40
2017-05-15T19:43:59.198Z,48.80
2017-05-15T19:46:27.476Z,48.70
2017-05-15T19:48:55.759Z,48.80
2017-05-15T19:51:24.053Z,49.30
2017-05-15T19:53:52.332Z,49.50
2017-05-15T19:56:21.371Z,49.80
2017-05-15T19:58:49.645Z,49.70
2017-05-15T20:01:17.941Z,50.00
2017-05-15T20:03:46.536Z,50.30
2017-05-15T20:06:14.903Z,50.90
2017-05-15T20:08:43.703Z,51.20
2017-05-15T20:11:12.001Z,51.10
2017-05-15T20:13:41.036Z,51.00
2017-05-15T20:16:09.422Z,51.50
2017-05-15T20:18:37.735Z,51.80
2017-05-15T20:21:06.019Z,51.50
2017-05-15T20:23:34.481Z,51.60
2017-05-15T20:26:02.763Z,51.60
2017-05-15T20:28:31.056Z,51.00
2017-05-15T20:30:59.332Z,51.20
2017-05-15T20:33:27.628Z,51.20
2017-05-15T20:35:56.648Z,51.10
2017-05-15T20:38:24.941Z,51.80
2017-05-15T20:40:53.219Z,52.00
2017-05-15T20:43:21.504Z,52.00
2017-05-15T20:45:49.800Z,51.70
2017-05-15T20:48:18.084Z,51.70
2017-05-15T20:50:46.373Z,52.10
2017-05-15T20:53:15.395Z,52.50
2017-05-15T20:55:43.690Z,53.00
2017-05-15T20:58:11.972Z,52.60
2017-05-15T21:00:40.293Z,53.10
2017-05-15T21:03:09.316Z,53.60
2017-05-15T21:05:37.587Z,53.40
2017-05-15T21:08:05.885Z,53.70
2017-05-15T21:10:34.160Z,53.90
2017-05-15T21:13:02.461Z,54.00
2017-05-15T21:15:30.740Z,54.10
2017-05-15T21:17:59.037Z,54.40
2017-05-15T21:20:28.052Z,54.20
2017-05-15T21:22:56.343Z,53.90
2017-05-15T21:25:24.624Z,54.20
2017-05-15T21:27:52.920Z,54.90
2017-05-15T21:30:21.201Z,54.60
2017-05-15T21:32:49.546Z,54.40
2017-05-15T21:35:17.839Z,54.50
2017-05-15T21:37:46.140Z,54.90
2017-05-15T21:40:14.419Z,55.00
2017-05-15T21:42:42.701Z,55.10
2017-05-15T21:45:11.004Z,55.20
2017-05-15T21:47:39.336Z,55.40
2017-05-15T21:50:07.635Z,55.30
2017-05-15T21:52:35.924Z,55.40
2017-05-15T21:55:04.955Z,55.60
2017-05-15T21:57:33.228Z,56.50
2017-05-15T22:00:01.520Z,56.60
2017-05-15T22:02:29.804Z,55.70
2017-05-15T22:04:58.100Z,56.30
2017-05-15T22:07:26.380Z,57.10
2017-05-15T22:09:54.688Z,56.20
2017-05-15T22:12:22.968Z,56.30
2017-05-15T22:14:51.248Z,56.60
2017-05-15T22:17:19.543Z,57.10
2017-05-15T22:19:47.830Z,57.40
2017-05-15T22:22:16.208Z,57.40
2017-05-15T22:24:44.479Z,57.70
2017-05-15T22:27:12.777Z,57.30
2017-05-15T22:29:41.056Z,57.20
2017-05-15T22:32:09.348Z,57.50
2017-05-15T22:34:37.624Z,57.00
2017-05-15T22:37:05.915Z,57.20
2017-05-15T22:39:34.940Z,57.30
2017-05-15T22:42:03.232Z,58.00
2017-05-15T22:44:31.609Z,57.50
2017-05-15T22:46:59.889Z,57.60
2017-05-15T22:49:28.183Z,57.80
2017-05-15T22:51:56.475Z,58.20
2017-05-15T22:54:25.511Z,58.30
2017-05-15T22:56:53.784Z,58.00
2017-05-15T22:59:22.075Z,58.20
2017-05-15T23:01:50.351Z,57.90
2017-05-15T23:04:18.644Z,58.10
2017-05-15T23:06:46.935Z,58.70
2017-05-15T23:09:15.227Z,58.60
2017-05-15T23:11:43.504Z,58.70
2017-05-15T23:14:12.536Z,58.50
2017-05-15T23:16:40.813Z,58.00
2017-05-15T23:19:09.119Z,58.20
2017-05-15T23:21:37.391Z,58.40
2017-05-15T23:24:05.668Z,58.40
2017-05-15T23:26:33.973Z,59.10
2017-05-15T23:29:02.252Z,59.90
2017-05-15T23:31:31.285Z,59.60
2017-05-15T23:33:59.564Z,59.90
2017-05-15T23:36:27.862Z,60.00
2017-05-15T23:38:56.136Z,60.20
2017-05-15T23:41:24.429Z,60.20
2017-05-15T23:43:52.707Z,60.00
2017-05-15T23:46:20.996Z,59.70
2017-05-15T23:48:49.276Z,59.50
2017-05-15T23:51:18.333Z,59.90
2017-05-15T23:53:46.609Z,58.80
2017-05-15T23:56:14.887Z,58.80
2017-05-15T23:58:43.180Z,58.70
